sensor_id;sensor_type;location;lat;lon;timestamp;temperature;humidity
7708;DHT22;3896;48.758;8.888;2023-08-06T00:01:44;16.60;99.90
7708;DHT22;3896;48.758;8.888;2023-08-06T00:04:09;16.60;99.90
7708;DHT22;3896;48.758;8.888;2023-08-06T00:06:35;16.60;99.90
7708;DHT22;3896;48.758;8.888;2023-08-06T00:09:00;16.50;99.90
7708;DHT22;3896;48.758;8.888;2023-08-06T00:11:26;16.50;99.90
7708;DHT22;3896;48.758;8.888;2023-08-06T00:13:51;16.50;99.90
7708;DHT22;3896;48.758;8.888;2023-08-06T00:16:17;16.40;99.90
7708;DHT22;3896;48.758;8.888;2023-08-06T00:18:42;16.40;99.90
7708;DHT22;3896;48.758;8.888;2023-08-06T00:21:08;16.30;99.90
7708;DHT22;3896;48.758;8.888;2023-08-06T00:23:33;16.30;99.90
7708;DHT22;3896;48.758;8.888;2023-08-06T00:25:59;16.20;99.90
7708;DHT22;3896;48.758;8.888;2023-08-06T00:28:25;16.20;99.90
7708;DHT22;3896;48.758;8.888;2023-08-06T00:30:57;16.10;99.90
7708;DHT22;3896;48.758;8.888;2023-08-06T00:33:23;16.00;99.90
7708;DHT22;3896;48.758;8.888;2023-08-06T00:35:49;16.00;99.90
7708;DHT22;3896;48.758;8.888;2023-08-06T00:38:15;16.00;99.90
7708;DHT22;3896;48.758;8.888;2023-08-06T00:40:41;15.90;99.90
7708;DHT22;3896;48.758;8.888;2023-08-06T00:43:06;15.80;99.90
7708;DHT22;3896;48.758;8.888;2023-08-06T00:45:36;15.80;99.90
7708;DHT22;3896;48.758;8.888;2023-08-06T00:48:03;15.80;99.90
7708;DHT22;3896;48.758;8.888;2023-08-06T00:50:30;15.70;99.90
7708;DHT22;3896;48.758;8.888;2023-08-06T00:52:56;15.70;99.90
7708;DHT22;3896;48.758;8.888;2023-08-06T00:55:22;15.70;99.90
7708;DHT22;3896;48.758;8.888;2023-08-06T00:57:48;15.60;99.90
7708;DHT22;3896;48.758;8.888;2023-08-06T01:00:14;15.60;99.90
7708;DHT22;3896;48.758;8.888;2023-08-06T01:02:39;15.60;99.90
7708;DHT22;3896;48.758;8.888;2023-08-06T01:05:05;15.50;99.90
7708;DHT22;3896;48.758;8.888;2023-08-06T01:07:51;15.50;99.90
7708;DHT22;3896;48.758;8.888;2023-08-06T01:10:47;15.50;99.90
7708;DHT22;3896;48.758;8.888;2023-08-06T01:16:01;15.40;99.90
7708;DHT22;3896;48.758;8.888;2023-08-06T01:18:28;15.40;99.90
7708;DHT22;3896;48.758;8.888;2023-08-06T01:20:54;15.40;99.90
7708;DHT22;3896;48.758;8.888;2023-08-06T01:23:20;15.40;99.90
7708;DHT22;3896;48.758;8.888;2023-08-06T01:28:32;15.30;99.90
7708;DHT22;3896;48.758;8.888;2023-08-06T01:31:02;15.20;99.90
7708;DHT22;3896;48.758;8.888;2023-08-06T01:33:28;15.20;99.90
7708;DHT22;3896;48.758;8.888;2023-08-06T01:35:57;15.20;99.90
7708;DHT22;3896;48.758;8.888;2023-08-06T01:38:24;15.20;99.90
7708;DHT22;3896;48.758;8.888;2023-08-06T01:40:50;15.10;99.90
7708;DHT22;3896;48.758;8.888;2023-08-06T01:43:15;15.10;99.90
7708;DHT22;3896;48.758;8.888;2023-08-06T01:45:41;15.10;99.90
7708;DHT22;3896;48.758;8.888;2023-08-06T01:48:06;15.00;99.90
7708;DHT22;3896;48.758;8.888;2023-08-06T01:50:32;15.00;99.90
7708;DHT22;3896;48.758;8.888;2023-08-06T01:52:57;15.00;99.90
7708;DHT22;3896;48.758;8.888;2023-08-06T01:55:23;14.90;99.90
7708;DHT22;3896;48.758;8.888;2023-08-06T01:57:48;14.90;99.90
7708;DHT22;3896;48.758;8.888;2023-08-06T02:00:14;14.90;99.90
7708;DHT22;3896;48.758;8.888;2023-08-06T02:02:39;14.80;99.90
7708;DHT22;3896;48.758;8.888;2023-08-06T02:05:06;14.80;99.90
7708;DHT22;3896;48.758;8.888;2023-08-06T02:07:32;14.80;99.90
7708;DHT22;3896;48.758;8.888;2023-08-06T02:09:57;14.70;99.90
7708;DHT22;3896;48.758;8.888;2023-08-06T02:12:23;14.70;99.90
7708;DHT22;3896;48.758;8.888;2023-08-06T02:14:48;14.70;99.90
7708;DHT22;3896;48.758;8.888;2023-08-06T02:17:14;14.70;99.90
7708;DHT22;3896;48.758;8.888;2023-08-06T02:19:39;14.70;99.90
7708;DHT22;3896;48.758;8.888;2023-08-06T02:22:05;14.70;99.90
7708;DHT22;3896;48.758;8.888;2023-08-06T02:24:30;14.70;99.90
7708;DHT22;3896;48.758;8.888;2023-08-06T02:26:56;14.70;99.90
7708;DHT22;3896;48.758;8.888;2023-08-06T02:29:21;14.70;99.90
7708;DHT22;3896;48.758;8.888;2023-08-06T02:31:47;14.70;99.90
7708;DHT22;3896;48.758;8.888;2023-08-06T02:34:12;14.70;99.90
7708;DHT22;3896;48.758;8.888;2023-08-06T02:36:38;14.70;99.90
7708;DHT22;3896;48.758;8.888;2023-08-06T02:39:04;14.70;99.90
7708;DHT22;3896;48.758;8.888;2023-08-06T02:41:29;14.70;99.90
7708;DHT22;3896;48.758;8.888;2023-08-06T02:43:55;14.80;99.90
7708;DHT22;3896;48.758;8.888;2023-08-06T02:46:20;14.80;99.90
7708;DHT22;3896;48.758;8.888;2023-08-06T02:48:46;14.80;99.90
7708;DHT22;3896;48.758;8.888;2023-08-06T02:51:11;14.80;99.90
7708;DHT22;3896;48.758;8.888;2023-08-06T02:53:37;14.70;99.90
7708;DHT22;3896;48.758;8.888;2023-08-06T02:56:02;14.70;99.90
7708;DHT22;3896;48.758;8.888;2023-08-06T02:58:28;14.70;99.90
7708;DHT22;3896;48.758;8.888;2023-08-06T03:01:04;14.70;99.90
7708;DHT22;3896;48.758;8.888;2023-08-06T03:03:31;14.70;99.90
7708;DHT22;3896;48.758;8.888;2023-08-06T03:05:57;14.70;99.90
7708;DHT22;3896;48.758;8.888;2023-08-06T03:08:22;14.70;99.90
7708;DHT22;3896;48.758;8.888;2023-08-06T03:10:49;14.80;99.90
7708;DHT22;3896;48.758;8.888;2023-08-06T03:13:16;14.80;99.90
7708;DHT22;3896;48.758;8.888;2023-08-06T03:15:41;14.80;99.90
7708;DHT22;3896;48.758;8.888;2023-08-06T03:18:07;14.80;99.90
7708;DHT22;3896;48.758;8.888;2023-08-06T03:20:33;14.80;99.90
7708;DHT22;3896;48.758;8.888;2023-08-06T03:22:58;14.80;99.90
7708;DHT22;3896;48.758;8.888;2023-08-06T03:25:24;14.80;99.90
7708;DHT22;3896;48.758;8.888;2023-08-06T03:27:49;14.80;99.90
7708;DHT22;3896;48.758;8.888;2023-08-06T03:30:15;14.80;99.90
7708;DHT22;3896;48.758;8.888;2023-08-06T03:32:40;14.80;99.90
7708;DHT22;3896;48.758;8.888;2023-08-06T03:35:06;14.80;99.90
7708;DHT22;3896;48.758;8.888;2023-08-06T03:37:32;14.80;99.90
7708;DHT22;3896;48.758;8.888;2023-08-06T03:39:57;14.80;99.90
7708;DHT22;3896;48.758;8.888;2023-08-06T03:42:23;14.80;99.90
7708;DHT22;3896;48.758;8.888;2023-08-06T03:44:48;14.80;99.90
7708;DHT22;3896;48.758;8.888;2023-08-06T03:47:14;14.80;99.90
7708;DHT22;3896;48.758;8.888;2023-08-06T03:49:39;14.80;99.90
7708;DHT22;3896;48.758;8.888;2023-08-06T03:52:05;14.90;99.90
7708;DHT22;3896;48.758;8.888;2023-08-06T03:54:31;14.90;99.90
7708;DHT22;3896;48.758;8.888;2023-08-06T03:56:57;14.90;99.90
7708;DHT22;3896;48.758;8.888;2023-08-06T03:59:22;14.90;99.90
7708;DHT22;3896;48.758;8.888;2023-08-06T04:01:48;14.90;99.90
7708;DHT22;3896;48.758;8.888;2023-08-06T04:04:13;14.90;99.90
7708;DHT22;3896;48.758;8.888;2023-08-06T04:06:39;14.90;99.90
7708;DHT22;3896;48.758;8.888;2023-08-06T04:09:04;14.90;99.90
7708;DHT22;3896;48.758;8.888;2023-08-06T04:11:30;14.90;99.90
7708;DHT22;3896;48.758;8.888;2023-08-06T04:13:55;14.90;99.90
7708;DHT22;3896;48.758;8.888;2023-08-06T04:16:21;14.90;99.90
7708;DHT22;3896;48.758;8.888;2023-08-06T04:18:47;14.90;99.90
7708;DHT22;3896;48.758;8.888;2023-08-06T04:21:12;14.90;99.90
7708;DHT22;3896;48.758;8.888;2023-08-06T04:23:38;15.00;99.90
7708;DHT22;3896;48.758;8.888;2023-08-06T04:26:03;15.00;99.90
7708;DHT22;3896;48.758;8.888;2023-08-06T04:28:29;15.00;99.90
7708;DHT22;3896;48.758;8.888;2023-08-06T04:30:55;15.00;99.90
7708;DHT22;3896;48.758;8.888;2023-08-06T04:33:21;15.00;99.90
7708;DHT22;3896;48.758;8.888;2023-08-06T04:35:46;15.00;99.90
7708;DHT22;3896;48.758;8.888;2023-08-06T04:38:12;15.00;99.90
7708;DHT22;3896;48.758;8.888;2023-08-06T04:40:37;15.00;99.90
7708;DHT22;3896;48.758;8.888;2023-08-06T04:43:03;15.00;99.90
7708;DHT22;3896;48.758;8.888;2023-08-06T04:45:29;15.00;99.90
7708;DHT22;3896;48.758;8.888;2023-08-06T04:47:54;15.00;99.90
7708;DHT22;3896;48.758;8.888;2023-08-06T04:50:20;15.00;99.90
7708;DHT22;3896;48.758;8.888;2023-08-06T04:52:45;15.00;99.90
7708;DHT22;3896;48.758;8.888;2023-08-06T04:55:11;15.10;99.90
7708;DHT22;3896;48.758;8.888;2023-08-06T04:57:36;15.10;99.90
7708;DHT22;3896;48.758;8.888;2023-08-06T05:00:03;15.10;99.90
7708;DHT22;3896;48.758;8.888;2023-08-06T05:02:30;15.00;99.90
7708;DHT22;3896;48.758;8.888;2023-08-06T05:04:57;15.10;99.90
7708;DHT22;3896;48.758;8.888;2023-08-06T05:07:23;15.10;99.90
7708;DHT22;3896;48.758;8.888;2023-08-06T05:09:49;15.10;99.90
7708;DHT22;3896;48.758;8.888;2023-08-06T05:12:14;15.10;99.90
7708;DHT22;3896;48.758;8.888;2023-08-06T05:14:40;15.10;99.90
7708;DHT22;3896;48.758;8.888;2023-08-06T05:17:05;15.10;99.90
7708;DHT22;3896;48.758;8.888;2023-08-06T05:19:31;15.20;99.90
7708;DHT22;3896;48.758;8.888;2023-08-06T05:21:56;15.20;99.90
7708;DHT22;3896;48.758;8.888;2023-08-06T05:24:22;15.20;99.90
7708;DHT22;3896;48.758;8.888;2023-08-06T05:26:47;15.20;99.90
7708;DHT22;3896;48.758;8.888;2023-08-06T05:29:13;15.30;99.90
7708;DHT22;3896;48.758;8.888;2023-08-06T05:31:39;15.30;99.90
7708;DHT22;3896;48.758;8.888;2023-08-06T05:34:04;15.40;99.90
7708;DHT22;3896;48.758;8.888;2023-08-06T05:36:29;15.40;99.90
7708;DHT22;3896;48.758;8.888;2023-08-06T05:38:55;15.40;99.90
7708;DHT22;3896;48.758;8.888;2023-08-06T05:41:21;15.50;99.90
7708;DHT22;3896;48.758;8.888;2023-08-06T05:43:46;15.50;99.90
7708;DHT22;3896;48.758;8.888;2023-08-06T05:46:12;15.50;99.90
7708;DHT22;3896;48.758;8.888;2023-08-06T05:48:37;15.50;99.90
7708;DHT22;3896;48.758;8.888;2023-08-06T05:51:03;15.50;99.90
7708;DHT22;3896;48.758;8.888;2023-08-06T05:53:28;15.60;99.90
7708;DHT22;3896;48.758;8.888;2023-08-06T05:55:54;15.60;99.90
7708;DHT22;3896;48.758;8.888;2023-08-06T05:58:19;15.60;99.90
7708;DHT22;3896;48.758;8.888;2023-08-06T06:00:49;15.60;99.90
7708;DHT22;3896;48.758;8.888;2023-08-06T06:03:15;15.60;99.90
7708;DHT22;3896;48.758;8.888;2023-08-06T06:05:40;15.60;99.90
7708;DHT22;3896;48.758;8.888;2023-08-06T06:08:06;15.60;99.90
7708;DHT22;3896;48.758;8.888;2023-08-06T06:10:31;15.70;99.90
7708;DHT22;3896;48.758;8.888;2023-08-06T06:12:57;15.70;99.90
7708;DHT22;3896;48.758;8.888;2023-08-06T06:15:22;15.70;99.90
7708;DHT22;3896;48.758;8.888;2023-08-06T06:17:48;15.70;99.90
7708;DHT22;3896;48.758;8.888;2023-08-06T06:20:13;15.70;99.90
7708;DHT22;3896;48.758;8.888;2023-08-06T06:22:39;15.70;99.90
7708;DHT22;3896;48.758;8.888;2023-08-06T06:25:05;15.80;99.90
7708;DHT22;3896;48.758;8.888;2023-08-06T06:27:30;15.80;99.90
7708;DHT22;3896;48.758;8.888;2023-08-06T06:29:57;15.80;99.90
7708;DHT22;3896;48.758;8.888;2023-08-06T06:32:23;15.80;99.90
7708;DHT22;3896;48.758;8.888;2023-08-06T06:34:48;15.90;99.90
7708;DHT22;3896;48.758;8.888;2023-08-06T06:37:14;15.90;99.90
7708;DHT22;3896;48.758;8.888;2023-08-06T06:39:39;15.90;99.90
7708;DHT22;3896;48.758;8.888;2023-08-06T06:42:05;16.00;99.90
7708;DHT22;3896;48.758;8.888;2023-08-06T06:44:30;16.00;99.90
7708;DHT22;3896;48.758;8.888;2023-08-06T06:46:56;15.90;99.90
7708;DHT22;3896;48.758;8.888;2023-08-06T06:49:21;15.90;99.90
7708;DHT22;3896;48.758;8.888;2023-08-06T06:51:48;16.00;99.90
7708;DHT22;3896;48.758;8.888;2023-08-06T06:54:14;16.00;99.90
7708;DHT22;3896;48.758;8.888;2023-08-06T06:56:39;16.00;99.90
7708;DHT22;3896;48.758;8.888;2023-08-06T06:59:05;16.00;99.90
7708;DHT22;3896;48.758;8.888;2023-08-06T07:01:31;16.00;99.90
7708;DHT22;3896;48.758;8.888;2023-08-06T07:03:58;16.00;99.90
7708;DHT22;3896;48.758;8.888;2023-08-06T07:06:23;16.00;99.90
7708;DHT22;3896;48.758;8.888;2023-08-06T07:08:49;16.00;99.90
7708;DHT22;3896;48.758;8.888;2023-08-06T07:11:14;16.00;99.90
7708;DHT22;3896;48.758;8.888;2023-08-06T07:13:40;16.00;99.90
7708;DHT22;3896;48.758;8.888;2023-08-06T07:16:05;16.00;99.90
7708;DHT22;3896;48.758;8.888;2023-08-06T07:18:31;16.10;99.90
7708;DHT22;3896;48.758;8.888;2023-08-06T07:20:56;16.10;99.90
7708;DHT22;3896;48.758;8.888;2023-08-06T07:23:24;16.10;99.90
7708;DHT22;3896;48.758;8.888;2023-08-06T07:25:50;16.10;99.90
7708;DHT22;3896;48.758;8.888;2023-08-06T07:28:16;16.10;99.90
7708;DHT22;3896;48.758;8.888;2023-08-06T07:30:43;16.10;99.90
7708;DHT22;3896;48.758;8.888;2023-08-06T07:33:09;16.20;99.90
7708;DHT22;3896;48.758;8.888;2023-08-06T07:35:35;16.10;99.90
7708;DHT22;3896;48.758;8.888;2023-08-06T07:38:00;16.10;99.90
7708;DHT22;3896;48.758;8.888;2023-08-06T07:40:26;16.20;99.90
7708;DHT22;3896;48.758;8.888;2023-08-06T07:42:51;16.20;99.90
7708;DHT22;3896;48.758;8.888;2023-08-06T07:45:18;16.20;99.90
7708;DHT22;3896;48.758;8.888;2023-08-06T07:47:44;16.20;99.90
7708;DHT22;3896;48.758;8.888;2023-08-06T07:50:11;16.20;99.90
7708;DHT22;3896;48.758;8.888;2023-08-06T07:52:37;16.30;99.90
7708;DHT22;3896;48.758;8.888;2023-08-06T07:55:02;16.30;99.90
7708;DHT22;3896;48.758;8.888;2023-08-06T07:57:31;16.40;99.90
7708;DHT22;3896;48.758;8.888;2023-08-06T07:59:56;16.40;99.90
7708;DHT22;3896;48.758;8.888;2023-08-06T08:02:22;16.50;99.90
7708;DHT22;3896;48.758;8.888;2023-08-06T08:04:48;16.50;99.90
7708;DHT22;3896;48.758;8.888;2023-08-06T08:07:14;16.60;99.90
7708;DHT22;3896;48.758;8.888;2023-08-06T08:09:39;16.60;99.90
7708;DHT22;3896;48.758;8.888;2023-08-06T08:12:05;16.70;99.90
7708;DHT22;3896;48.758;8.888;2023-08-06T08:14:31;16.70;99.90
7708;DHT22;3896;48.758;8.888;2023-08-06T08:17:03;16.80;99.90
7708;DHT22;3896;48.758;8.888;2023-08-06T08:19:29;16.80;99.90
7708;DHT22;3896;48.758;8.888;2023-08-06T08:21:55;16.90;99.90
7708;DHT22;3896;48.758;8.888;2023-08-06T08:24:21;16.90;99.90
7708;DHT22;3896;48.758;8.888;2023-08-06T08:26:52;17.00;99.90
7708;DHT22;3896;48.758;8.888;2023-08-06T08:29:19;17.00;99.90
7708;DHT22;3896;48.758;8.888;2023-08-06T08:31:48;17.00;99.90
7708;DHT22;3896;48.758;8.888;2023-08-06T08:34:18;17.00;99.90
7708;DHT22;3896;48.758;8.888;2023-08-06T08:36:44;17.10;99.90
7708;DHT22;3896;48.758;8.888;2023-08-06T08:39:13;17.10;99.90
7708;DHT22;3896;48.758;8.888;2023-08-06T08:41:39;17.20;99.90
7708;DHT22;3896;48.758;8.888;2023-08-06T08:44:08;17.20;99.90
7708;DHT22;3896;48.758;8.888;2023-08-06T08:46:39;17.30;99.90
7708;DHT22;3896;48.758;8.888;2023-08-06T08:49:05;17.30;99.90
7708;DHT22;3896;48.758;8.888;2023-08-06T08:51:33;17.40;99.90
7708;DHT22;3896;48.758;8.888;2023-08-06T08:53:59;17.40;99.90
7708;DHT22;3896;48.758;8.888;2023-08-06T08:56:27;17.40;99.90
7708;DHT22;3896;48.758;8.888;2023-08-06T08:58:53;17.50;99.90
7708;DHT22;3896;48.758;8.888;2023-08-06T09:01:21;17.50;99.90
7708;DHT22;3896;48.758;8.888;2023-08-06T09:03:47;17.60;99.90
7708;DHT22;3896;48.758;8.888;2023-08-06T09:06:13;17.70;99.90
7708;DHT22;3896;48.758;8.888;2023-08-06T09:08:47;17.70;99.90
7708;DHT22;3896;48.758;8.888;2023-08-06T09:11:13;17.70;99.90
7708;DHT22;3896;48.758;8.888;2023-08-06T09:13:39;17.80;99.90
7708;DHT22;3896;48.758;8.888;2023-08-06T09:16:05;17.90;99.90
7708;DHT22;3896;48.758;8.888;2023-08-06T09:18:30;17.90;99.90
7708;DHT22;3896;48.758;8.888;2023-08-06T09:20:57;18.00;99.90
7708;DHT22;3896;48.758;8.888;2023-08-06T09:23:30;18.00;99.90
7708;DHT22;3896;48.758;8.888;2023-08-06T09:25:57;18.00;99.90
7708;DHT22;3896;48.758;8.888;2023-08-06T09:28:36;18.10;99.90
7708;DHT22;3896;48.758;8.888;2023-08-06T09:31:02;18.10;99.90
7708;DHT22;3896;48.758;8.888;2023-08-06T09:33:29;18.20;99.90
7708;DHT22;3896;48.758;8.888;2023-08-06T09:35:54;18.20;99.90
7708;DHT22;3896;48.758;8.888;2023-08-06T09:38:20;18.20;99.90
7708;DHT22;3896;48.758;8.888;2023-08-06T09:40:47;18.30;99.90
7708;DHT22;3896;48.758;8.888;2023-08-06T09:43:13;18.30;99.90
7708;DHT22;3896;48.758;8.888;2023-08-06T09:45:39;18.40;99.90
7708;DHT22;3896;48.758;8.888;2023-08-06T09:48:07;18.30;99.90
7708;DHT22;3896;48.758;8.888;2023-08-06T09:50:35;18.30;99.90
7708;DHT22;3896;48.758;8.888;2023-08-06T09:53:05;18.40;99.90
7708;DHT22;3896;48.758;8.888;2023-08-06T09:55:32;18.40;99.90
7708;DHT22;3896;48.758;8.888;2023-08-06T09:57:59;18.40;99.90
7708;DHT22;3896;48.758;8.888;2023-08-06T10:00:25;18.40;99.90
7708;DHT22;3896;48.758;8.888;2023-08-06T10:02:53;18.40;99.90
7708;DHT22;3896;48.758;8.888;2023-08-06T10:05:22;18.40;99.90
7708;DHT22;3896;48.758;8.888;2023-08-06T10:07:48;18.40;99.90
7708;DHT22;3896;48.758;8.888;2023-08-06T10:10:16;18.40;99.90
7708;DHT22;3896;48.758;8.888;2023-08-06T10:12:54;18.40;99.90
7708;DHT22;3896;48.758;8.888;2023-08-06T10:15:25;18.40;99.90
7708;DHT22;3896;48.758;8.888;2023-08-06T10:17:54;18.50;99.90
7708;DHT22;3896;48.758;8.888;2023-08-06T10:20:21;18.50;99.90
7708;DHT22;3896;48.758;8.888;2023-08-06T10:23:03;18.50;99.90
7708;DHT22;3896;48.758;8.888;2023-08-06T10:25:36;18.50;99.90
7708;DHT22;3896;48.758;8.888;2023-08-06T10:28:11;18.60;99.90
7708;DHT22;3896;48.758;8.888;2023-08-06T10:30:44;18.60;99.90
7708;DHT22;3896;48.758;8.888;2023-08-06T10:33:09;18.60;99.90
7708;DHT22;3896;48.758;8.888;2023-08-06T10:35:36;18.70;99.90
7708;DHT22;3896;48.758;8.888;2023-08-06T10:38:08;18.70;99.90
7708;DHT22;3896;48.758;8.888;2023-08-06T10:40:34;18.70;99.90
7708;DHT22;3896;48.758;8.888;2023-08-06T10:43:04;18.70;99.90
7708;DHT22;3896;48.758;8.888;2023-08-06T10:45:34;18.70;99.90
7708;DHT22;3896;48.758;8.888;2023-08-06T10:48:00;18.70;99.90
7708;DHT22;3896;48.758;8.888;2023-08-06T10:50:26;18.70;99.90
7708;DHT22;3896;48.758;8.888;2023-08-06T10:52:52;18.70;99.90
7708;DHT22;3896;48.758;8.888;2023-08-06T10:55:28;18.60;99.90
7708;DHT22;3896;48.758;8.888;2023-08-06T10:57:55;18.60;99.90
7708;DHT22;3896;48.758;8.888;2023-08-06T11:00:22;18.60;99.90
7708;DHT22;3896;48.758;8.888;2023-08-06T11:02:54;18.60;99.90
7708;DHT22;3896;48.758;8.888;2023-08-06T11:05:20;18.60;99.90
7708;DHT22;3896;48.758;8.888;2023-08-06T11:07:46;18.60;99.90
7708;DHT22;3896;48.758;8.888;2023-08-06T11:10:13;18.60;99.90
7708;DHT22;3896;48.758;8.888;2023-08-06T11:12:39;18.60;99.90
7708;DHT22;3896;48.758;8.888;2023-08-06T11:15:06;18.50;99.90
7708;DHT22;3896;48.758;8.888;2023-08-06T11:17:33;18.50;99.90
7708;DHT22;3896;48.758;8.888;2023-08-06T11:20:03;18.40;99.90
7708;DHT22;3896;48.758;8.888;2023-08-06T11:22:29;18.40;99.90
7708;DHT22;3896;48.758;8.888;2023-08-06T11:24:55;18.40;99.90
7708;DHT22;3896;48.758;8.888;2023-08-06T11:27:21;18.40;99.90
7708;DHT22;3896;48.758;8.888;2023-08-06T11:29:46;18.30;99.90
7708;DHT22;3896;48.758;8.888;2023-08-06T11:32:12;18.30;99.90
7708;DHT22;3896;48.758;8.888;2023-08-06T11:34:39;18.20;99.80
7708;DHT22;3896;48.758;8.888;2023-08-06T11:37:05;18.20;99.80
7708;DHT22;3896;48.758;8.888;2023-08-06T11:39:34;18.20;99.80
7708;DHT22;3896;48.758;8.888;2023-08-06T11:42:00;18.20;99.80
7708;DHT22;3896;48.758;8.888;2023-08-06T11:44:30;18.10;99.50
7708;DHT22;3896;48.758;8.888;2023-08-06T11:46:58;18.10;99.40
7708;DHT22;3896;48.758;8.888;2023-08-06T11:49:46;18.10;99.60
7708;DHT22;3896;48.758;8.888;2023-08-06T11:52:25;18.00;99.30
7708;DHT22;3896;48.758;8.888;2023-08-06T11:55:01;18.00;99.40
7708;DHT22;3896;48.758;8.888;2023-08-06T11:57:36;17.90;99.30
7708;DHT22;3896;48.758;8.888;2023-08-06T12:00:03;18.00;99.60
7708;DHT22;3896;48.758;8.888;2023-08-06T12:02:33;18.00;99.50
7708;DHT22;3896;48.758;8.888;2023-08-06T12:05:09;18.00;99.80
7708;DHT22;3896;48.758;8.888;2023-08-06T12:07:40;18.00;99.60
7708;DHT22;3896;48.758;8.888;2023-08-06T12:10:07;17.90;99.30
7708;DHT22;3896;48.758;8.888;2023-08-06T12:12:34;17.90;99.20
7708;DHT22;3896;48.758;8.888;2023-08-06T12:15:00;17.90;99.20
7708;DHT22;3896;48.758;8.888;2023-08-06T12:17:26;17.80;99.00
7708;DHT22;3896;48.758;8.888;2023-08-06T12:19:51;17.80;98.90
7708;DHT22;3896;48.758;8.888;2023-08-06T12:22:17;17.80;99.10
7708;DHT22;3896;48.758;8.888;2023-08-06T12:24:44;17.80;99.20
7708;DHT22;3896;48.758;8.888;2023-08-06T12:27:11;17.90;99.40
7708;DHT22;3896;48.758;8.888;2023-08-06T12:29:41;17.90;99.70
7708;DHT22;3896;48.758;8.888;2023-08-06T12:32:07;17.90;99.60
7708;DHT22;3896;48.758;8.888;2023-08-06T12:34:33;17.90;99.40
7708;DHT22;3896;48.758;8.888;2023-08-06T12:36:58;18.00;99.30
7708;DHT22;3896;48.758;8.888;2023-08-06T12:39:24;18.00;99.40
7708;DHT22;3896;48.758;8.888;2023-08-06T12:41:49;18.10;99.50
7708;DHT22;3896;48.758;8.888;2023-08-06T12:44:15;18.10;99.30
7708;DHT22;3896;48.758;8.888;2023-08-06T12:46:40;18.20;99.20
7708;DHT22;3896;48.758;8.888;2023-08-06T12:49:06;18.20;99.00
7708;DHT22;3896;48.758;8.888;2023-08-06T12:51:32;18.20;98.40
7708;DHT22;3896;48.758;8.888;2023-08-06T12:53:59;18.20;98.30
7708;DHT22;3896;48.758;8.888;2023-08-06T12:56:25;18.20;97.40
7708;DHT22;3896;48.758;8.888;2023-08-06T12:58:50;18.30;97.10
7708;DHT22;3896;48.758;8.888;2023-08-06T13:01:16;18.30;96.90
7708;DHT22;3896;48.758;8.888;2023-08-06T13:03:41;18.30;96.60
7708;DHT22;3896;48.758;8.888;2023-08-06T13:06:07;18.30;96.50
7708;DHT22;3896;48.758;8.888;2023-08-06T13:08:34;18.40;96.30
7708;DHT22;3896;48.758;8.888;2023-08-06T13:11:01;18.40;95.90
7708;DHT22;3896;48.758;8.888;2023-08-06T13:13:26;18.50;95.50
7708;DHT22;3896;48.758;8.888;2023-08-06T13:15:52;18.50;95.40
7708;DHT22;3896;48.758;8.888;2023-08-06T13:18:18;18.60;95.60
7708;DHT22;3896;48.758;8.888;2023-08-06T13:20:43;18.70;95.30
7708;DHT22;3896;48.758;8.888;2023-08-06T13:23:09;18.80;95.00
7708;DHT22;3896;48.758;8.888;2023-08-06T13:25:34;18.90;94.80
7708;DHT22;3896;48.758;8.888;2023-08-06T13:28:05;18.90;93.90
7708;DHT22;3896;48.758;8.888;2023-08-06T13:30:31;19.00;93.60
7708;DHT22;3896;48.758;8.888;2023-08-06T13:32:56;19.00;93.10
7708;DHT22;3896;48.758;8.888;2023-08-06T13:35:22;19.10;92.70
7708;DHT22;3896;48.758;8.888;2023-08-06T13:37:48;19.10;92.20
7708;DHT22;3896;48.758;8.888;2023-08-06T13:40:14;19.20;92.40
7708;DHT22;3896;48.758;8.888;2023-08-06T13:42:40;19.20;92.40
7708;DHT22;3896;48.758;8.888;2023-08-06T13:45:06;19.20;92.00
7708;DHT22;3896;48.758;8.888;2023-08-06T13:47:32;19.30;91.70
7708;DHT22;3896;48.758;8.888;2023-08-06T13:49:57;19.30;91.40
7708;DHT22;3896;48.758;8.888;2023-08-06T13:52:25;19.30;91.20
7708;DHT22;3896;48.758;8.888;2023-08-06T13:54:50;19.40;91.20
7708;DHT22;3896;48.758;8.888;2023-08-06T13:57:16;19.50;91.20
7708;DHT22;3896;48.758;8.888;2023-08-06T13:59:42;19.60;91.20
7708;DHT22;3896;48.758;8.888;2023-08-06T14:02:09;19.70;90.70
7708;DHT22;3896;48.758;8.888;2023-08-06T14:04:35;19.90;90.40
7708;DHT22;3896;48.758;8.888;2023-08-06T14:07:00;20.00;89.60
7708;DHT22;3896;48.758;8.888;2023-08-06T14:09:26;20.10;88.00
7708;DHT22;3896;48.758;8.888;2023-08-06T14:11:51;20.20;87.30
7708;DHT22;3896;48.758;8.888;2023-08-06T14:14:17;20.30;87.10
7708;DHT22;3896;48.758;8.888;2023-08-06T14:16:42;20.40;86.60
7708;DHT22;3896;48.758;8.888;2023-08-06T14:19:08;20.50;86.00
7708;DHT22;3896;48.758;8.888;2023-08-06T14:21:33;20.50;85.70
7708;DHT22;3896;48.758;8.888;2023-08-06T14:23:59;20.60;85.20
7708;DHT22;3896;48.758;8.888;2023-08-06T14:26:24;20.60;84.60
7708;DHT22;3896;48.758;8.888;2023-08-06T14:28:50;20.70;85.00
7708;DHT22;3896;48.758;8.888;2023-08-06T14:31:20;20.70;85.70
7708;DHT22;3896;48.758;8.888;2023-08-06T14:33:46;20.60;86.20
7708;DHT22;3896;48.758;8.888;2023-08-06T14:36:11;20.60;86.80
7708;DHT22;3896;48.758;8.888;2023-08-06T14:38:37;20.50;88.40
7708;DHT22;3896;48.758;8.888;2023-08-06T14:41:02;20.50;89.50
7708;DHT22;3896;48.758;8.888;2023-08-06T14:43:28;20.40;89.60
7708;DHT22;3896;48.758;8.888;2023-08-06T14:45:53;20.40;89.00
7708;DHT22;3896;48.758;8.888;2023-08-06T14:48:19;20.30;89.70
7708;DHT22;3896;48.758;8.888;2023-08-06T14:50:44;20.20;89.60
7708;DHT22;3896;48.758;8.888;2023-08-06T14:53:10;20.10;89.80
7708;DHT22;3896;48.758;8.888;2023-08-06T14:55:37;20.10;90.20
7708;DHT22;3896;48.758;8.888;2023-08-06T14:58:02;20.00;90.00
7708;DHT22;3896;48.758;8.888;2023-08-06T15:00:28;20.00;90.60
7708;DHT22;3896;48.758;8.888;2023-08-06T15:02:54;20.00;90.90
7708;DHT22;3896;48.758;8.888;2023-08-06T15:05:19;20.10;91.00
7708;DHT22;3896;48.758;8.888;2023-08-06T15:07:45;20.20;90.30
7708;DHT22;3896;48.758;8.888;2023-08-06T15:10:10;20.30;89.80
7708;DHT22;3896;48.758;8.888;2023-08-06T15:12:36;20.50;89.60
7708;DHT22;3896;48.758;8.888;2023-08-06T15:15:02;20.60;88.80
7708;DHT22;3896;48.758;8.888;2023-08-06T15:17:27;20.70;88.10
7708;DHT22;3896;48.758;8.888;2023-08-06T15:19:56;20.70;86.80
7708;DHT22;3896;48.758;8.888;2023-08-06T15:22:23;20.80;86.20
7708;DHT22;3896;48.758;8.888;2023-08-06T15:24:49;20.80;85.70
7708;DHT22;3896;48.758;8.888;2023-08-06T15:27:15;20.80;84.90
7708;DHT22;3896;48.758;8.888;2023-08-06T15:29:41;20.80;84.20
7708;DHT22;3896;48.758;8.888;2023-08-06T15:32:07;20.80;84.10
7708;DHT22;3896;48.758;8.888;2023-08-06T15:34:34;20.90;84.10
7708;DHT22;3896;48.758;8.888;2023-08-06T15:37:01;20.90;83.20
7708;DHT22;3896;48.758;8.888;2023-08-06T15:39:26;20.90;83.20
7708;DHT22;3896;48.758;8.888;2023-08-06T15:41:52;20.90;81.50
7708;DHT22;3896;48.758;8.888;2023-08-06T15:44:18;20.90;81.20
7708;DHT22;3896;48.758;8.888;2023-08-06T15:46:44;20.90;81.20
7708;DHT22;3896;48.758;8.888;2023-08-06T15:49:09;20.80;80.90
7708;DHT22;3896;48.758;8.888;2023-08-06T15:51:35;20.80;80.50
7708;DHT22;3896;48.758;8.888;2023-08-06T15:54:01;20.70;80.40
7708;DHT22;3896;48.758;8.888;2023-08-06T15:56:27;20.70;80.10
7708;DHT22;3896;48.758;8.888;2023-08-06T15:58:52;20.70;80.40
7708;DHT22;3896;48.758;8.888;2023-08-06T16:01:18;20.60;80.20
7708;DHT22;3896;48.758;8.888;2023-08-06T16:03:43;20.50;80.40